• Join FlightAware (Why Join?)
  • Login
  • US Flag 
10:10PM EDT


 

Airport Tracker/Info


-or-


 

Live Flight TrackerFlight Track Log ✈ RAX81 ✈ 10-May-2013 ✈ KBWI - KPHL

Flight Track Log - Related Links

Times and Time Zones

All times are in EDT time to prevent confusion due to time zone crossing. See the RAX81 flight status page for this flight to view local times or setup timezone preferences in your user account.

Time Position Orientation Groundspeed Altitude Reporting Facility
EDT Latitude Longitude Course Direction KTS MPH feet Rate Location/Type
04:30AM 39.2333 -76.6667 North 144 166 2,600  Level Potomac TRACON
04:31AM 39.2500 -76.6167 67° East 158 182 4,300 1,200 Climbing Potomac TRACON
04:32AM 39.2667 -76.5500 72° East 198 228 5,100 360 Climbing Potomac TRACON
04:33AM 39.3000 -76.4833 57° Northeast 236 272 5,100  Level Potomac TRACON
04:34AM 39.3333 -76.4167 57° Northeast 242 278 5,100  Level Potomac TRACON
04:35AM 39.3833 -76.3333 52° Northeast 244 281 5,100  Level Potomac TRACON
04:36AM 39.4167 -76.2667 57° Northeast 244 281 5,100  Level Potomac TRACON
04:37AM 39.4500 -76.1833 63° Northeast 244 281 5,100 -60 Level Potomac TRACON
04:39AM 39.5000 -76.0500 64° Northeast 245 282 5,000 -60 Descending Philadelphia TRACON
04:40AM 39.5000 -75.9667 90° East 249 287 5,000  Level Philadelphia TRACON
04:41AM 39.5167 -75.8833 75° East 250 288 5,000  Level Philadelphia TRACON
04:42AM 39.5167 -75.7833 90° East 250 288 5,000  Level Philadelphia TRACON
04:43AM 39.5333 -75.7000 75° East 251 289 5,000  Level Philadelphia TRACON
04:44AM 39.5333 -75.6167 90° East 251 289 5,000  Level Philadelphia TRACON
04:45AM 39.5333 -75.5167 90° East 251 289 5,000  Level Philadelphia TRACON
04:46AM 39.5500 -75.4333 75° East 251 289 5,000 -300 Level Philadelphia TRACON
04:47AM 39.5833 -75.3500 63° Northeast 244 281 4,500 -600 Descending Philadelphia TRACON
04:48AM 39.6167 -75.2833 57° Northeast 245 282 3,900 -300 Descending Philadelphia TRACON
04:49AM 39.6667 -75.2000 52° Northeast 236 272 4,000 -120 Climbing Philadelphia TRACON
04:50AM 39.7000 -75.1333 57° Northeast 236 272 3,700 -600 Descending Philadelphia TRACON
04:51AM 39.7500 -75.0833 38° Northeast 244 281 2,900 -840 Descending Philadelphia TRACON
04:52AM 39.8000 -75.1000 346° North 212 244 2,100 -720 Descending Philadelphia TRACON
04:53AM 39.8500 -75.1333 333° Northwest 207 238 1,600 -600 Descending Philadelphia TRACON
04:54AM 39.8833 -75.1667 323° Northwest 125 144 1,000 -720 Descending Philadelphia TRACON
04:55AM 39.8833 -75.2167 270° West 105 121 200 -840 Descending Philadelphia TRACON
04:57AM 39.8722 -75.2409 159° South  Level Estimated